createdAt,value
2023-05-06T00:01:02.141Z,81.32
2023-05-06T00:02:04.974Z,81.39
2023-05-06T00:03:08.237Z,81.38
2023-05-06T00:04:11.243Z,81.39
2023-05-06T00:05:14.376Z,81.38
2023-05-06T00:06:17.288Z,81.43
2023-05-06T00:07:20.153Z,81.44
2023-05-06T00:08:23.116Z,81.50
2023-05-06T00:09:26.137Z,81.48
2023-05-06T00:10:29.185Z,81.50
2023-05-06T00:11:31.926Z,81.56
2023-05-06T00:12:34.675Z,81.63
2023-05-06T00:13:38.204Z,81.55
2023-05-06T00:14:41.186Z,81.50
2023-05-06T00:15:43.879Z,81.62
2023-05-06T00:16:47.001Z,81.74
2023-05-06T00:17:49.862Z,81.72
2023-05-06T00:18:52.761Z,81.90
2023-05-06T00:19:56.365Z,81.91
2023-05-06T00:20:59.174Z,81.85
2023-05-06T00:22:01.959Z,81.90
2023-05-06T00:23:04.707Z,82.00
2023-05-06T00:24:07.440Z,82.09
2023-05-06T00:25:10.857Z,82.15
2023-05-06T00:26:13.695Z,82.14
2023-05-06T00:27:16.474Z,82.09
2023-05-06T00:28:19.315Z,81.87
2023-05-06T00:29:22.231Z,81.83
2023-05-06T00:30:25.818Z,81.89
2023-05-06T00:31:28.803Z,81.98
2023-05-06T00:32:31.645Z,81.92
2023-05-06T00:33:34.504Z,82.01
2023-05-06T00:34:37.480Z,82.15
2023-05-06T00:35:40.246Z,82.36
2023-05-06T00:36:43.185Z,82.14
2023-05-06T00:37:47.044Z,82.36
2023-05-06T00:38:49.805Z,82.44
2023-05-06T00:39:52.405Z,82.43
2023-05-06T00:40:55.165Z,82.38
2023-05-06T00:42:04.343Z,82.24
2023-05-06T00:43:07.532Z,82.24
2023-05-06T00:44:10.442Z,82.26
2023-05-06T00:45:13.150Z,82.35
2023-05-06T00:46:19.839Z,82.13
2023-05-06T00:47:22.931Z,82.25
2023-05-06T00:48:25.836Z,82.33
2023-05-06T00:49:30.670Z,82.41
2023-05-06T00:50:35.105Z,82.42
2023-05-06T00:51:38.303Z,82.32
2023-05-06T00:52:41.040Z,82.24
2023-05-06T00:53:47.093Z,82.35
2023-05-06T00:54:49.932Z,82.51
2023-05-06T00:55:52.911Z,82.54
2023-05-06T00:56:56.638Z,82.54
2023-05-06T00:57:59.755Z,82.53
2023-05-06T00:59:02.706Z,82.45
2023-05-06T01:00:07.686Z,82.55
2023-05-06T01:01:11.136Z,82.58
2023-05-06T01:02:13.920Z,82.94
2023-05-06T01:03:17.373Z,83.09
2023-05-06T01:04:21.893Z,83.37
2023-05-06T01:05:30.075Z,83.47
2023-05-06T01:06:50.114Z,83.38
2023-05-06T01:07:57.300Z,83.34
2023-05-06T01:09:25.294Z,83.25
2023-05-06T01:10:47.946Z,83.25
2023-05-06T01:11:55.768Z,83.25
2023-05-06T01:13:07.441Z,83.29
2023-05-06T01:14:13.110Z,83.40
2023-05-06T01:15:36.052Z,83.71
2023-05-06T01:16:41.611Z,83.75
2023-05-06T01:17:50.763Z,83.87
2023-05-06T01:18:55.377Z,83.84
2023-05-06T01:20:01.959Z,83.73
2023-05-06T01:21:06.186Z,83.74
2023-05-06T01:22:11.830Z,83.84
2023-05-06T01:23:15.250Z,83.76
2023-05-06T01:24:18.138Z,83.78
2023-05-06T01:25:22.391Z,83.76
2023-05-06T01:26:25.634Z,83.77
2023-05-06T01:27:29.267Z,83.66
2023-05-06T01:28:32.054Z,83.67
2023-05-06T01:29:37.491Z,83.70
2023-05-06T01:30:52.514Z,83.48
2023-05-06T01:31:59.531Z,83.58
2023-05-06T01:33:13.679Z,83.84
2023-05-06T01:34:27.445Z,84.01
2023-05-06T01:35:55.740Z,83.96
2023-05-06T01:37:25.863Z,83.97
2023-05-06T01:38:46.316Z,84.13
2023-05-06T01:39:50.498Z,84.23
2023-05-06T01:40:57.126Z,84.21
2023-05-06T01:42:02.883Z,84.22
2023-05-06T01:43:06.715Z,84.22
2023-05-06T01:44:11.174Z,84.23
2023-05-06T01:45:17.093Z,84.34
2023-05-06T01:46:22.150Z,84.45
2023-05-06T01:47:26.021Z,84.35
2023-05-06T01:48:32.496Z,84.35
2023-05-06T01:49:36.057Z,84.22
2023-05-06T01:50:39.327Z,84.30
2023-05-06T01:51:48.204Z,84.26
2023-05-06T01:53:03.344Z,84.08
2023-05-06T01:54:06.129Z,84.18
2023-05-06T01:55:09.651Z,84.25
2023-05-06T01:56:12.596Z,84.38
2023-05-06T01:57:15.445Z,84.52
2023-05-06T01:58:18.190Z,84.45
2023-05-06T01:59:21.134Z,84.32
2023-05-06T02:00:27.723Z,84.29
2023-05-06T02:01:30.753Z,84.35
2023-05-06T02:02:33.678Z,83.94
2023-05-06T02:03:37.737Z,83.85
2023-05-06T02:04:40.634Z,83.58
2023-05-06T02:05:43.445Z,83.42
2023-05-06T02:06:46.411Z,83.32
2023-05-06T02:07:49.397Z,83.35
2023-05-06T02:08:52.091Z,83.53
2023-05-06T02:09:54.910Z,83.44
2023-05-06T02:10:57.649Z,83.60
2023-05-06T02:12:00.546Z,83.53
2023-05-06T02:13:03.373Z,83.56
2023-05-06T02:14:06.201Z,83.60
2023-05-06T02:15:09.662Z,83.63
2023-05-06T02:16:12.494Z,83.58
2023-05-06T02:17:15.452Z,83.69
2023-05-06T02:18:19.097Z,83.74
2023-05-06T02:19:22.128Z,83.63
2023-05-06T02:20:24.925Z,83.68
2023-05-06T02:21:28.680Z,83.59
2023-05-06T02:22:31.401Z,83.71
2023-05-06T02:23:34.303Z,83.86
2023-05-06T02:24:37.027Z,83.79
2023-05-06T02:25:39.740Z,83.99
2023-05-06T02:26:42.445Z,84.05
2023-05-06T02:27:45.528Z,83.99
2023-05-06T02:28:48.316Z,84.01
2023-05-06T02:29:51.074Z,83.96
2023-05-06T02:30:57.655Z,83.81
2023-05-06T02:32:00.544Z,83.94
2023-05-06T02:33:03.786Z,84.08
2023-05-06T02:34:07.018Z,84.52
2023-05-06T02:35:10.236Z,85.00
2023-05-06T02:36:13.397Z,84.84
2023-05-06T02:37:16.378Z,84.83
2023-05-06T02:38:19.827Z,85.08
2023-05-06T02:39:22.940Z,84.95
2023-05-06T02:40:25.696Z,84.85
2023-05-06T02:41:28.480Z,85.23
2023-05-06T02:42:31.219Z,85.43
2023-05-06T02:43:34.053Z,85.44
2023-05-06T02:44:36.875Z,85.60
2023-05-06T02:45:39.663Z,85.48
2023-05-06T02:46:43.797Z,85.74
2023-05-06T02:47:46.610Z,85.78
2023-05-06T02:48:49.571Z,85.91
2023-05-06T02:49:52.778Z,86.58
2023-05-06T02:50:55.492Z,86.82
2023-05-06T02:51:58.473Z,87.04
2023-05-06T02:53:01.098Z,86.99
2023-05-06T02:54:03.895Z,87.03
2023-05-06T02:55:07.305Z,87.14
2023-05-06T02:56:10.129Z,86.69
2023-05-06T02:57:12.926Z,86.72
2023-05-06T02:58:15.678Z,86.86
2023-05-06T02:59:18.387Z,87.04
2023-05-06T03:00:21.237Z,86.99
2023-05-06T03:01:24.469Z,87.13
2023-05-06T03:02:27.352Z,87.30
2023-05-06T03:03:30.057Z,87.25
2023-05-06T03:04:33.049Z,87.31
2023-05-06T03:05:35.897Z,87.81
2023-05-06T03:06:38.671Z,87.92
2023-05-06T03:07:41.551Z,88.46
2023-05-06T03:08:44.234Z,88.65
2023-05-06T03:09:47.372Z,88.81
2023-05-06T03:10:51.163Z,89.01
2023-05-06T03:11:54.460Z,89.24
2023-05-06T03:12:57.168Z,89.42
2023-05-06T03:13:59.966Z,89.26
2023-05-06T03:15:02.736Z,89.46
2023-05-06T03:16:06.255Z,89.58
2023-05-06T03:17:09.000Z,89.64
2023-05-06T03:18:11.729Z,89.60
2023-05-06T03:19:14.333Z,89.46
2023-05-06T03:20:17.134Z,89.41
2023-05-06T03:21:20.267Z,89.60
2023-05-06T03:22:23.109Z,89.56
2023-05-06T03:23:26.247Z,89.60
2023-05-06T03:24:28.942Z,89.54
2023-05-06T03:25:31.671Z,89.53
2023-05-06T03:26:34.494Z,89.25
2023-05-06T03:27:37.462Z,89.00
2023-05-06T03:28:43.831Z,89.01
2023-05-06T03:29:46.525Z,89.04
2023-05-06T03:30:49.334Z,88.98
2023-05-06T03:31:52.190Z,88.97
2023-05-06T03:32:56.571Z,88.73
2023-05-06T03:33:59.302Z,88.62
2023-05-06T03:35:02.216Z,88.41
2023-05-06T03:36:05.785Z,88.34
2023-05-06T03:37:09.282Z,88.53
2023-05-06T03:38:12.120Z,88.68
2023-05-06T03:39:14.891Z,88.49
2023-05-06T03:40:18.007Z,88.23
2023-05-06T03:41:21.570Z,88.26
2023-05-06T03:42:24.516Z,88.44
2023-05-06T03:43:27.494Z,88.50
2023-05-06T03:44:30.152Z,88.46
2023-05-06T03:45:32.928Z,88.10
2023-05-06T03:46:35.827Z,87.62
2023-05-06T03:47:39.123Z,87.44
2023-05-06T03:48:42.030Z,87.63
2023-05-06T03:49:44.713Z,87.67
2023-05-06T03:50:47.614Z,87.65
2023-05-06T03:51:50.287Z,87.68
2023-05-06T03:52:53.258Z,87.98
2023-05-06T03:53:56.694Z,88.31
2023-05-06T03:54:59.474Z,88.51
2023-05-06T03:56:02.191Z,88.86
2023-05-06T03:57:05.566Z,89.06
2023-05-06T03:58:08.450Z,89.25
2023-05-06T03:59:11.399Z,89.10
2023-05-06T04:00:14.771Z,89.11
2023-05-06T04:01:18.394Z,88.98
2023-05-06T04:02:21.100Z,88.79
2023-05-06T04:03:23.926Z,89.01
2023-05-06T04:04:27.485Z,89.25
2023-05-06T04:05:30.259Z,89.15
2023-05-06T04:06:33.044Z,89.16
2023-05-06T04:07:35.789Z,89.23
2023-05-06T04:08:38.780Z,89.24
2023-05-06T04:09:41.706Z,89.10
2023-05-06T04:10:44.639Z,89.01
2023-05-06T04:11:47.474Z,89.17
2023-05-06T04:12:50.299Z,89.37
2023-05-06T04:13:53.057Z,89.42
2023-05-06T04:14:55.736Z,89.45
2023-05-06T04:15:58.651Z,89.65
2023-05-06T04:17:01.471Z,89.69
2023-05-06T04:18:06.438Z,89.76
2023-05-06T04:19:09.328Z,89.94
2023-05-06T04:20:12.576Z,90.05
2023-05-06T04:21:16.137Z,90.15
2023-05-06T04:22:18.870Z,90.40
2023-05-06T04:23:22.221Z,90.49
2023-05-06T04:24:24.979Z,90.61
2023-05-06T04:25:29.023Z,90.88
2023-05-06T04:26:32.426Z,90.88
2023-05-06T04:27:35.665Z,90.70
2023-05-06T04:28:38.581Z,90.47
2023-05-06T04:29:41.352Z,90.06
2023-05-06T04:30:45.134Z,89.86
2023-05-06T04:31:48.215Z,90.04
2023-05-06T04:32:51.124Z,90.27
2023-05-06T04:33:53.905Z,90.49
2023-05-06T04:34:57.349Z,90.55
2023-05-06T04:36:00.565Z,90.66
2023-05-06T04:37:03.949Z,90.48
2023-05-06T04:38:06.774Z,90.34
2023-05-06T04:39:10.700Z,90.07
2023-05-06T04:40:14.086Z,89.95
2023-05-06T04:41:17.147Z,90.14
2023-05-06T04:42:20.063Z,90.21
2023-05-06T04:43:23.100Z,90.17
2023-05-06T04:44:26.138Z,90.16
2023-05-06T04:45:30.027Z,90.14
2023-05-06T04:46:34.328Z,90.41
2023-05-06T04:47:37.427Z,90.26
2023-05-06T04:48:40.153Z,90.24
2023-05-06T04:49:42.806Z,90.11
2023-05-06T04:50:46.771Z,89.96
2023-05-06T04:51:49.450Z,89.98
2023-05-06T04:52:52.181Z,89.69
2023-05-06T04:53:54.863Z,89.94
2023-05-06T04:54:57.534Z,90.15
2023-05-06T04:56:00.216Z,89.95
2023-05-06T04:57:03.601Z,90.05
2023-05-06T04:58:06.412Z,90.29
2023-05-06T04:59:09.077Z,90.17
2023-05-06T05:00:12.368Z,90.07
2023-05-06T05:01:15.776Z,90.36
2023-05-06T05:02:18.627Z,90.07
2023-05-06T05:03:21.468Z,89.94
2023-05-06T05:04:24.272Z,89.57
2023-05-06T05:05:28.410Z,89.12
2023-05-06T05:06:32.168Z,88.91
2023-05-06T05:07:35.003Z,88.83
2023-05-06T05:08:37.789Z,88.76
2023-05-06T05:09:40.476Z,88.53
2023-05-06T05:10:46.469Z,88.64
2023-05-06T05:11:49.257Z,89.04
2023-05-06T05:12:51.918Z,89.40
2023-05-06T05:13:56.839Z,89.09
2023-05-06T05:15:00.213Z,88.98
2023-05-06T05:16:03.090Z,88.96
2023-05-06T05:17:05.840Z,89.23
2023-05-06T05:18:09.121Z,89.36
2023-05-06T05:19:11.970Z,89.48
2023-05-06T05:20:15.169Z,89.34
2023-05-06T05:21:18.222Z,89.14
2023-05-06T05:22:21.175Z,89.27
2023-05-06T05:23:24.522Z,89.32
2023-05-06T05:24:27.317Z,88.92
2023-05-06T05:25:30.086Z,87.87
2023-05-06T05:26:32.744Z,87.49
2023-05-06T05:27:35.779Z,87.21
2023-05-06T05:28:38.589Z,87.01
2023-05-06T05:29:41.536Z,86.39
2023-05-06T05:30:44.215Z,86.43
2023-05-06T05:31:47.173Z,86.63
2023-05-06T05:32:51.016Z,86.76
2023-05-06T05:33:53.812Z,86.79
2023-05-06T05:34:56.657Z,86.75
2023-05-06T05:35:59.368Z,86.76
2023-05-06T05:37:02.091Z,86.49
2023-05-06T05:38:04.798Z,85.88
2023-05-06T05:39:07.806Z,85.33
2023-05-06T05:40:10.849Z,84.90
2023-05-06T05:41:15.508Z,84.49
2023-05-06T05:42:20.620Z,83.33
2023-05-06T05:43:26.167Z,82.63
2023-05-06T05:44:28.814Z,82.37
2023-05-06T05:45:31.577Z,82.43
2023-05-06T05:46:34.492Z,82.63
2023-05-06T05:47:37.307Z,82.71
2023-05-06T05:48:40.175Z,82.99
2023-05-06T05:49:42.985Z,82.61
2023-05-06T05:50:46.293Z,81.58
2023-05-06T05:51:48.986Z,79.65
2023-05-06T05:52:51.718Z,79.19
2023-05-06T05:53:54.448Z,78.80
2023-05-06T05:54:57.058Z,78.30
2023-05-06T05:55:59.659Z,77.98
2023-05-06T05:57:02.663Z,78.24
2023-05-06T05:58:05.601Z,78.86
2023-05-06T05:59:08.475Z,79.10
2023-05-06T06:00:13.484Z,79.20
2023-05-06T06:01:16.754Z,79.06
2023-05-06T06:02:21.578Z,78.65
2023-05-06T06:03:24.596Z,77.34
2023-05-06T06:04:27.378Z,76.51
2023-05-06T06:05:30.233Z,76.45
2023-05-06T06:06:33.542Z,76.61
2023-05-06T06:07:36.702Z,76.56
2023-05-06T06:08:39.757Z,76.21
2023-05-06T06:09:43.313Z,76.46
2023-05-06T06:10:47.360Z,76.71
2023-05-06T06:11:50.137Z,76.99
2023-05-06T06:12:53.116Z,77.18
2023-05-06T06:13:55.904Z,76.94
2023-05-06T06:14:58.608Z,75.95
2023-05-06T06:16:01.480Z,76.55
2023-05-06T06:17:04.342Z,76.95
2023-05-06T06:18:09.037Z,77.22
2023-05-06T06:19:12.063Z,77.38
2023-05-06T06:20:14.847Z,75.61
2023-05-06T06:21:17.604Z,75.88
2023-05-06T06:22:20.576Z,75.75
2023-05-06T06:23:23.886Z,76.03
2023-05-06T06:24:26.748Z,76.32
2023-05-06T06:25:29.526Z,76.12
2023-05-06T06:26:32.226Z,76.23
2023-05-06T06:27:36.895Z,76.37
2023-05-06T06:28:39.916Z,76.25
2023-05-06T06:29:42.956Z,76.12
2023-05-06T06:30:46.119Z,76.06
2023-05-06T06:31:49.344Z,74.33
2023-05-06T06:32:54.042Z,74.21
2023-05-06T06:33:56.757Z,73.45
2023-05-06T06:34:59.521Z,72.84
2023-05-06T06:36:02.462Z,72.97
2023-05-06T06:37:07.353Z,73.23
2023-05-06T06:38:10.847Z,73.11
2023-05-06T06:39:13.787Z,71.67
2023-05-06T06:40:17.246Z,71.39
2023-05-06T06:41:20.017Z,71.38
2023-05-06T06:42:22.989Z,71.43
2023-05-06T06:43:25.773Z,71.78
2023-05-06T06:44:28.579Z,71.12
2023-05-06T06:45:31.474Z,68.94
2023-05-06T06:46:34.579Z,66.04
2023-05-06T06:47:37.309Z,64.18
2023-05-06T06:48:40.169Z,62.73
2023-05-06T06:49:43.126Z,62.68
2023-05-06T06:50:45.983Z,61.84
2023-05-06T06:51:48.817Z,60.89
2023-05-06T06:52:51.943Z,61.41
2023-05-06T06:53:54.793Z,60.34
2023-05-06T06:54:57.430Z,58.77
2023-05-06T06:56:00.190Z,59.25
2023-05-06T06:57:03.489Z,59.22
2023-05-06T06:58:06.402Z,59.92
2023-05-06T06:59:09.310Z,58.36
2023-05-06T07:00:13.282Z,57.59
2023-05-06T07:01:16.172Z,58.79
2023-05-06T07:02:18.918Z,59.42
2023-05-06T07:03:21.734Z,56.61
2023-05-06T07:04:25.889Z,56.96
2023-05-06T07:05:28.661Z,58.43
2023-05-06T07:06:31.319Z,60.54
2023-05-06T07:07:34.280Z,60.56
2023-05-06T07:08:37.014Z,60.63
2023-05-06T07:09:40.370Z,61.70
2023-05-06T07:10:43.104Z,62.52
2023-05-06T07:11:46.028Z,62.05
2023-05-06T07:12:48.892Z,62.03
2023-05-06T07:13:51.824Z,62.29
2023-05-06T07:14:54.425Z,62.34
2023-05-06T07:15:59.197Z,61.25
2023-05-06T07:17:02.748Z,59.54
2023-05-06T07:18:06.172Z,58.80
2023-05-06T07:19:09.000Z,56.54
2023-05-06T07:20:12.635Z,56.26
2023-05-06T07:21:15.416Z,57.51
2023-05-06T07:22:18.356Z,57.67
2023-05-06T07:23:21.276Z,57.84
2023-05-06T07:24:24.495Z,56.80
2023-05-06T07:25:28.247Z,57.59
2023-05-06T07:26:31.165Z,56.49
2023-05-06T07:27:34.022Z,57.43
2023-05-06T07:28:37.778Z,57.54
2023-05-06T07:29:40.506Z,57.78
2023-05-06T07:30:43.484Z,57.57
2023-05-06T07:31:46.219Z,58.22
2023-05-06T07:32:49.005Z,58.19
2023-05-06T07:33:51.973Z,58.43
2023-05-06T07:34:54.736Z,58.74
2023-05-06T07:35:57.544Z,58.55
2023-05-06T07:37:00.496Z,58.51
2023-05-06T07:38:03.227Z,58.62
2023-05-06T07:39:09.655Z,58.33
2023-05-06T07:40:13.017Z,58.41
2023-05-06T07:41:16.517Z,58.01
2023-05-06T07:42:19.532Z,57.60
2023-05-06T07:43:23.414Z,57.65
2023-05-06T07:44:26.435Z,57.25
2023-05-06T07:45:29.328Z,57.49
2023-05-06T07:46:32.811Z,58.39
2023-05-06T07:47:36.605Z,58.56
2023-05-06T07:48:39.760Z,57.25
2023-05-06T07:49:42.729Z,55.92
2023-05-06T07:50:45.545Z,56.90
2023-05-06T07:51:48.365Z,56.77
2023-05-06T07:52:51.156Z,55.70
2023-05-06T07:53:53.854Z,55.50
2023-05-06T07:54:56.493Z,54.83
2023-05-06T07:56:02.443Z,55.58
2023-05-06T07:57:05.294Z,55.54
2023-05-06T07:58:08.337Z,55.10
2023-05-06T07:59:12.001Z,55.35
2023-05-06T08:00:15.018Z,54.88
2023-05-06T08:01:17.876Z,53.63
2023-05-06T08:02:20.924Z,55.05
2023-05-06T08:03:24.181Z,54.26
2023-05-06T08:04:26.997Z,54.20
2023-05-06T08:05:29.836Z,54.64
2023-05-06T08:06:33.251Z,52.41
2023-05-06T08:07:36.240Z,52.21
2023-05-06T08:08:38.966Z,53.24
2023-05-06T08:09:41.872Z,54.48
2023-05-06T08:10:45.575Z,53.99
2023-05-06T08:11:49.966Z,54.10
2023-05-06T08:12:53.315Z,53.42
2023-05-06T08:13:56.448Z,53.58
2023-05-06T08:14:59.362Z,53.29
2023-05-06T08:16:02.703Z,52.86
2023-05-06T08:17:05.706Z,53.24
2023-05-06T08:18:20.911Z,53.18
2023-05-06T08:19:25.350Z,53.63
2023-05-06T08:20:28.034Z,54.13
2023-05-06T08:21:31.017Z,54.17
2023-05-06T08:22:33.822Z,54.27
2023-05-06T08:23:36.513Z,54.16
2023-05-06T08:24:39.178Z,53.85
2023-05-06T08:25:41.897Z,54.16
2023-05-06T08:26:44.863Z,52.94
2023-05-06T08:27:47.554Z,53.19
2023-05-06T08:28:50.255Z,53.27
2023-05-06T08:29:53.008Z,50.35
2023-05-06T08:30:55.801Z,49.88
2023-05-06T08:31:58.783Z,51.64
2023-05-06T08:33:02.645Z,51.29
2023-05-06T08:34:05.467Z,50.53
2023-05-06T08:35:08.653Z,51.19
2023-05-06T08:36:11.512Z,51.32
2023-05-06T08:37:14.861Z,52.13
2023-05-06T08:38:18.085Z,50.87
2023-05-06T08:39:21.030Z,51.85
2023-05-06T08:40:26.609Z,49.17
2023-05-06T08:41:30.832Z,49.06
2023-05-06T08:42:38.155Z,49.87
2023-05-06T08:43:43.278Z,50.60
2023-05-06T08:44:46.060Z,51.12
2023-05-06T08:45:49.855Z,51.21
2023-05-06T08:46:53.305Z,47.51
2023-05-06T08:47:56.614Z,47.50
2023-05-06T08:49:00.236Z,47.46
2023-05-06T08:50:03.563Z,48.45
2023-05-06T08:51:08.268Z,49.46
2023-05-06T08:52:11.939Z,49.57
2023-05-06T08:53:15.002Z,48.79
2023-05-06T08:54:18.395Z,48.82
2023-05-06T08:55:24.468Z,49.02
2023-05-06T08:56:30.658Z,49.82
2023-05-06T08:57:34.505Z,50.65
2023-05-06T08:58:38.856Z,51.61
2023-05-06T08:59:42.804Z,52.21
2023-05-06T09:00:46.564Z,51.32
2023-05-06T09:01:49.478Z,51.23
2023-05-06T09:02:52.257Z,51.17
2023-05-06T09:03:57.079Z,50.94
2023-05-06T09:05:00.335Z,51.02
2023-05-06T09:06:03.116Z,50.41
2023-05-06T09:07:05.796Z,48.45
2023-05-06T09:08:08.486Z,48.63
2023-05-06T09:09:13.317Z,48.46
2023-05-06T09:10:18.089Z,48.75
2023-05-06T09:11:23.442Z,49.31
2023-05-06T09:12:26.634Z,48.19
2023-05-06T09:13:30.378Z,47.32
2023-05-06T09:14:33.090Z,47.25
2023-05-06T09:15:47.628Z,46.79
2023-05-06T09:16:52.760Z,47.21
2023-05-06T09:17:56.586Z,47.62
2023-05-06T09:18:59.716Z,47.95
2023-05-06T09:20:02.648Z,46.36
2023-05-06T09:21:05.448Z,45.48
2023-05-06T09:22:09.327Z,46.48
2023-05-06T09:23:13.563Z,47.35
2023-05-06T09:24:17.223Z,47.75
2023-05-06T09:25:20.824Z,46.85
2023-05-06T09:26:23.949Z,45.92
2023-05-06T09:27:29.732Z,44.69
2023-05-06T09:28:33.595Z,44.36
2023-05-06T09:29:36.285Z,44.95
2023-05-06T09:30:47.817Z,44.08
2023-05-06T09:31:52.857Z,42.37
2023-05-06T09:32:56.999Z,42.63
2023-05-06T09:34:01.257Z,44.11
2023-05-06T09:35:05.044Z,44.83
2023-05-06T09:36:08.050Z,45.23
2023-05-06T09:37:10.791Z,46.05
2023-05-06T09:38:13.534Z,45.78
2023-05-06T09:39:16.357Z,45.57
2023-05-06T09:40:19.063Z,45.28
2023-05-06T09:41:24.499Z,45.80
2023-05-06T09:42:28.985Z,46.89
2023-05-06T09:43:32.186Z,46.56
2023-05-06T09:44:38.001Z,45.40
2023-05-06T09:45:41.155Z,44.25
2023-05-06T09:46:45.493Z,46.07
2023-05-06T09:47:50.093Z,46.13
2023-05-06T09:48:54.980Z,45.50
2023-05-06T09:49:59.530Z,43.49
2023-05-06T09:51:02.775Z,43.19
2023-05-06T09:52:07.757Z,43.80
2023-05-06T09:53:13.556Z,44.85
2023-05-06T09:54:18.586Z,42.80
2023-05-06T09:55:23.492Z,42.63
2023-05-06T09:56:27.129Z,40.93
2023-05-06T09:57:31.336Z,40.45
2023-05-06T09:58:35.272Z,41.57
2023-05-06T09:59:39.529Z,39.41
2023-05-06T10:00:44.241Z,39.70
2023-05-06T10:01:47.336Z,39.35
2023-05-06T10:02:51.128Z,39.86
2023-05-06T10:03:54.856Z,40.58
2023-05-06T10:04:59.885Z,40.40
2023-05-06T10:06:06.254Z,39.92
2023-05-06T10:07:13.083Z,39.59
2023-05-06T10:08:18.857Z,40.93
2023-05-06T10:09:24.597Z,42.09
2023-05-06T10:10:28.687Z,42.56
2023-05-06T10:11:32.600Z,42.29
2023-05-06T10:12:37.052Z,43.09
2023-05-06T10:13:41.767Z,43.63
2023-05-06T10:14:44.684Z,44.32
2023-05-06T10:15:49.607Z,44.87
2023-05-06T10:16:53.624Z,44.50
2023-05-06T10:17:56.725Z,44.85
2023-05-06T10:19:00.971Z,45.81
2023-05-06T10:20:05.162Z,46.18
2023-05-06T10:21:18.514Z,47.12
2023-05-06T10:22:36.751Z,46.74
2023-05-06T10:23:52.427Z,47.60
2023-05-06T10:25:17.351Z,47.72
2023-05-06T10:26:22.473Z,47.98
2023-05-06T10:27:28.100Z,48.04
2023-05-06T10:28:32.001Z,47.53
2023-05-06T10:29:37.690Z,48.10
2023-05-06T10:30:41.597Z,48.73
2023-05-06T10:31:53.607Z,47.46
2023-05-06T10:33:00.166Z,48.04
2023-05-06T10:34:07.401Z,48.01
2023-05-06T10:35:30.191Z,46.85
2023-05-06T10:36:36.642Z,47.11
2023-05-06T10:37:41.280Z,47.10
2023-05-06T10:38:46.663Z,48.20
2023-05-06T10:39:49.796Z,48.57
2023-05-06T10:40:53.279Z,48.70
2023-05-06T10:41:57.033Z,48.31
2023-05-06T10:43:25.246Z,47.44
2023-05-06T10:44:59.456Z,47.19
2023-05-06T10:46:15.620Z,46.78
2023-05-06T10:47:18.447Z,46.49
2023-05-06T10:48:21.636Z,46.55
2023-05-06T10:49:24.982Z,44.66
2023-05-06T10:50:28.232Z,42.24
2023-05-06T10:51:33.014Z,42.95
2023-05-06T10:52:46.497Z,43.31
2023-05-06T10:53:59.656Z,43.11
2023-05-06T10:55:30.030Z,43.05
2023-05-06T10:56:34.782Z,42.24
2023-05-06T10:57:41.757Z,41.97
2023-05-06T10:58:48.319Z,43.15
2023-05-06T10:59:51.057Z,42.47
2023-05-06T11:00:58.295Z,41.58
2023-05-06T11:02:04.774Z,40.78
2023-05-06T11:03:12.107Z,40.25
2023-05-06T11:04:18.843Z,41.86
2023-05-06T11:05:23.009Z,43.37
2023-05-06T11:07:06.633Z,43.53
2023-05-06T11:08:11.279Z,41.21
2023-05-06T11:09:22.733Z,41.51
2023-05-06T11:10:34.529Z,41.16
2023-05-06T11:12:03.820Z,42.09
2023-05-06T11:13:27.105Z,42.22
2023-05-06T11:14:38.156Z,40.72
2023-05-06T11:15:41.551Z,41.56
2023-05-06T11:16:51.391Z,42.18
2023-05-06T11:17:56.147Z,42.69
2023-05-06T11:18:59.550Z,42.26
2023-05-06T11:20:37.528Z,42.37
2023-05-06T11:21:40.719Z,42.20
2023-05-06T11:22:43.819Z,43.97
2023-05-06T11:23:55.269Z,43.00
2023-05-06T11:24:58.353Z,42.65
2023-05-06T11:26:01.858Z,42.95
2023-05-06T11:27:04.620Z,41.41
2023-05-06T11:28:12.036Z,41.11
2023-05-06T11:29:18.681Z,42.47
2023-05-06T11:30:21.997Z,43.71
2023-05-06T11:31:25.970Z,43.40
2023-05-06T11:32:30.125Z,42.80
2023-05-06T11:33:34.979Z,43.39
2023-05-06T11:34:38.628Z,43.40
2023-05-06T11:35:41.418Z,43.51
2023-05-06T11:37:02.805Z,43.32
2023-05-06T11:38:06.190Z,43.47
2023-05-06T11:39:09.475Z,44.49
2023-05-06T11:40:16.081Z,44.30
2023-05-06T11:41:19.489Z,43.71
2023-05-06T11:42:27.290Z,44.56
2023-05-06T11:43:30.190Z,45.32
2023-05-06T11:44:37.800Z,44.49
2023-05-06T11:45:48.312Z,44.87
2023-05-06T11:46:51.634Z,45.04
2023-05-06T11:47:55.361Z,46.35
2023-05-06T11:48:58.164Z,45.79
2023-05-06T11:50:07.930Z,45.24
2023-05-06T11:51:10.981Z,45.85
2023-05-06T11:52:13.831Z,44.73
2023-05-06T11:53:19.247Z,44.79
2023-05-06T11:54:23.218Z,45.22
2023-05-06T11:55:26.358Z,45.80
2023-05-06T11:56:29.163Z,47.00
2023-05-06T11:57:33.707Z,46.91
2023-05-06T11:58:36.636Z,44.96
2023-05-06T11:59:40.988Z,45.75
2023-05-06T12:00:51.451Z,44.39
2023-05-06T12:01:54.605Z,44.26
2023-05-06T12:02:59.532Z,46.99
2023-05-06T12:04:02.781Z,46.11
2023-05-06T12:05:06.776Z,45.94
2023-05-06T12:06:09.876Z,46.86
2023-05-06T12:07:15.683Z,47.86
2023-05-06T12:08:27.882Z,46.84
2023-05-06T12:09:31.940Z,47.28
2023-05-06T12:10:36.393Z,49.91
2023-05-06T12:11:42.092Z,48.56
2023-05-06T12:12:46.795Z,47.74
2023-05-06T12:13:49.672Z,47.14
2023-05-06T12:14:53.646Z,47.81
2023-05-06T12:15:59.571Z,48.00
2023-05-06T12:17:02.802Z,48.23
2023-05-06T12:18:05.970Z,48.73
2023-05-06T12:19:08.872Z,48.78
2023-05-06T12:20:12.603Z,48.14
2023-05-06T12:21:22.149Z,48.30
2023-05-06T12:22:25.148Z,49.10
2023-05-06T12:23:27.872Z,49.65
2023-05-06T12:24:30.761Z,50.45
2023-05-06T12:25:33.533Z,50.85
2023-05-06T12:26:49.915Z,50.13
2023-05-06T12:27:52.895Z,49.80
2023-05-06T12:29:08.038Z,49.24
2023-05-06T12:30:11.858Z,49.63
2023-05-06T12:31:22.930Z,49.84
2023-05-06T12:32:25.903Z,49.96
2023-05-06T12:33:44.291Z,49.44
2023-05-06T12:34:46.946Z,48.47
2023-05-06T12:35:51.840Z,49.58
2023-05-06T12:36:54.640Z,49.07
2023-05-06T12:38:08.331Z,49.29
2023-05-06T12:39:14.357Z,49.86
2023-05-06T12:40:18.316Z,49.45
2023-05-06T12:41:21.671Z,48.68
2023-05-06T12:42:24.397Z,48.27
2023-05-06T12:43:31.589Z,47.69
2023-05-06T12:44:40.595Z,48.33
2023-05-06T12:45:46.057Z,47.62
2023-05-06T12:46:53.014Z,46.29
2023-05-06T12:48:00.252Z,45.38
2023-05-06T12:49:03.628Z,44.96
2023-05-06T12:50:06.659Z,45.85
2023-05-06T12:51:22.494Z,44.68
2023-05-06T12:52:27.813Z,45.62
2023-05-06T12:53:35.686Z,45.88
2023-05-06T12:54:38.481Z,46.15
2023-05-06T12:55:42.484Z,46.85
2023-05-06T12:56:46.127Z,46.58
2023-05-06T12:57:49.463Z,46.90
2023-05-06T12:59:02.615Z,47.39
2023-05-06T13:00:08.091Z,47.57
2023-05-06T13:01:11.065Z,47.40
2023-05-06T13:02:14.390Z,47.15
2023-05-06T13:03:19.481Z,47.90
2023-05-06T13:04:23.126Z,48.07
2023-05-06T13:05:25.838Z,48.17
2023-05-06T13:06:28.783Z,47.99
2023-05-06T13:07:31.542Z,48.50
2023-05-06T13:08:34.204Z,48.07
2023-05-06T13:09:36.950Z,48.37
2023-05-06T13:10:39.926Z,48.67
2023-05-06T13:11:42.850Z,49.06
2023-05-06T13:12:45.647Z,49.12
2023-05-06T13:13:48.717Z,48.97
2023-05-06T13:14:51.380Z,48.89
2023-05-06T13:15:54.169Z,47.92
2023-05-06T13:16:57.374Z,48.30
2023-05-06T13:18:00.181Z,48.95
2023-05-06T13:19:03.728Z,49.07
2023-05-06T13:20:07.480Z,48.89
2023-05-06T13:21:10.436Z,49.20
2023-05-06T13:22:13.301Z,50.06
2023-05-06T13:23:16.306Z,51.09
2023-05-06T13:24:19.343Z,51.03
2023-05-06T13:25:22.373Z,52.08
2023-05-06T13:26:25.135Z,51.38
2023-05-06T13:27:31.726Z,51.97
2023-05-06T13:28:37.156Z,53.09
2023-05-06T13:29:40.117Z,52.54
2023-05-06T13:30:43.180Z,50.66
2023-05-06T13:31:49.480Z,51.45
2023-05-06T13:32:52.367Z,52.00
2023-05-06T13:33:56.506Z,52.71
2023-05-06T13:34:59.593Z,53.58
2023-05-06T13:36:04.590Z,54.56
2023-05-06T13:37:08.004Z,53.80
2023-05-06T13:38:10.801Z,53.99
2023-05-06T13:39:13.712Z,54.20
2023-05-06T13:40:16.631Z,54.11
2023-05-06T13:41:19.979Z,54.60
2023-05-06T13:42:22.900Z,55.34
2023-05-06T13:43:25.725Z,54.71
2023-05-06T13:44:28.660Z,55.22
2023-05-06T13:45:33.764Z,55.31
2023-05-06T13:46:36.672Z,56.96
2023-05-06T13:47:39.430Z,56.43
2023-05-06T13:48:42.423Z,56.46
2023-05-06T13:49:45.495Z,57.07
2023-05-06T13:50:48.340Z,55.74